createdAt,value
2022-08-26T00:01:54.446Z,3.50
2022-08-26T00:04:23.604Z,3.72
2022-08-26T00:06:51.254Z,3.03
2022-08-26T00:09:18.515Z,2.75
2022-08-26T00:11:45.758Z,3.00
2022-08-26T00:14:14.010Z,2.88
2022-08-26T00:16:47.536Z,2.80
2022-08-26T00:19:16.219Z,2.83
2022-08-26T00:21:43.372Z,2.90
2022-08-26T00:24:10.367Z,3.15
2022-08-26T00:26:37.502Z,3.08
2022-08-26T00:29:04.493Z,3.75
2022-08-26T00:31:32.685Z,3.38
2022-08-26T00:33:59.641Z,3.15
2022-08-26T00:36:29.725Z,3.65
2022-08-26T00:38:58.096Z,3.67
2022-08-26T00:41:24.948Z,3.80
2022-08-26T00:43:53.254Z,3.92
2022-08-26T00:46:28.870Z,3.50
2022-08-26T00:49:05.523Z,3.20
2022-08-26T00:51:49.342Z,3.50
2022-08-26T00:54:17.225Z,3.60
2022-08-26T00:57:00.851Z,3.42
2022-08-26T00:59:32.820Z,3.73
2022-08-26T01:02:01.231Z,4.15
2022-08-26T01:04:32.198Z,4.05
2022-08-26T01:06:59.483Z,4.00
2022-08-26T01:09:27.233Z,3.97
2022-08-26T01:11:57.594Z,4.38
2022-08-26T01:14:29.581Z,4.50
2022-08-26T01:16:56.923Z,4.32
2022-08-26T01:19:31.138Z,4.50
2022-08-26T01:22:16.693Z,4.70
2022-08-26T01:24:44.028Z,4.45
2022-08-26T01:27:14.552Z,4.93
2022-08-26T01:29:43.423Z,5.15
2022-08-26T01:32:14.493Z,5.22
2022-08-26T01:34:41.390Z,6.35
2022-08-26T01:37:15.758Z,6.10
2022-08-26T01:39:44.967Z,7.38
2022-08-26T01:42:14.650Z,6.30
2022-08-26T01:44:59.967Z,6.82
2022-08-26T01:47:29.942Z,6.65
2022-08-26T01:49:59.871Z,6.95
2022-08-26T01:52:28.824Z,7.85
2022-08-26T01:54:57.343Z,6.32
2022-08-26T01:57:25.492Z,7.82
2022-08-26T01:59:56.246Z,8.00
2022-08-26T02:02:24.447Z,8.05
2022-08-26T02:04:58.862Z,8.00
2022-08-26T02:07:27.628Z,7.93
2022-08-26T02:09:54.963Z,7.63
2022-08-26T02:12:22.577Z,8.40
2022-08-26T02:14:53.762Z,10.07
2022-08-26T02:17:24.623Z,8.23
2022-08-26T02:19:52.064Z,8.25
2022-08-26T02:22:22.234Z,9.05
2022-08-26T02:24:58.108Z,8.20
2022-08-26T02:27:32.509Z,10.15
2022-08-26T02:30:11.593Z,8.65
2022-08-26T02:32:40.212Z,9.15
2022-08-26T02:35:10.566Z,9.30
2022-08-26T02:37:37.742Z,8.70
2022-08-26T02:40:07.934Z,9.80
2022-08-26T02:42:35.310Z,8.93
2022-08-26T02:45:02.159Z,9.27
2022-08-26T02:47:29.463Z,10.75
2022-08-26T02:49:59.658Z,10.70
2022-08-26T02:52:26.989Z,9.07
2022-08-26T02:54:55.265Z,8.13
2022-08-26T02:57:22.355Z,8.90
2022-08-26T02:59:49.509Z,8.73
2022-08-26T03:02:17.375Z,9.20
2022-08-26T03:04:58.129Z,7.63
2022-08-26T03:09:57.243Z,7.45
2022-08-26T03:12:24.399Z,7.65
2022-08-26T03:14:53.024Z,8.10
2022-08-26T03:17:19.891Z,8.27
2022-08-26T03:19:49.010Z,7.85
2022-08-26T03:22:19.784Z,9.82
2022-08-26T03:24:47.440Z,7.45
2022-08-26T03:27:14.380Z,8.02
2022-08-26T03:29:59.890Z,7.35
2022-08-26T03:32:27.060Z,7.45
2022-08-26T03:34:54.452Z,7.13
2022-08-26T03:37:21.666Z,7.10
2022-08-26T03:39:49.424Z,6.40
2022-08-26T03:42:16.278Z,6.95
2022-08-26T03:44:43.240Z,7.97
2022-08-26T03:47:10.661Z,7.20
2022-08-26T03:49:37.538Z,7.40
2022-08-26T03:52:04.801Z,7.82
2022-08-26T03:54:33.112Z,6.97
2022-08-26T03:57:00.127Z,8.38
2022-08-26T03:59:27.797Z,7.72
2022-08-26T04:01:54.821Z,8.32
2022-08-26T04:04:22.782Z,9.65
2022-08-26T04:06:59.412Z,7.85
2022-08-26T04:09:27.682Z,8.32
2022-08-26T04:11:56.832Z,7.50
2022-08-26T04:14:25.521Z,7.25
2022-08-26T04:16:55.285Z,8.35
2022-08-26T04:19:23.769Z,7.82
2022-08-26T04:21:53.041Z,8.88
2022-08-26T04:24:22.449Z,8.02
2022-08-26T04:26:50.369Z,7.32
2022-08-26T04:29:20.496Z,9.07
2022-08-26T04:31:50.712Z,7.75
2022-08-26T04:34:28.753Z,7.38
2022-08-26T04:36:56.585Z,6.68
2022-08-26T04:39:23.840Z,7.97
2022-08-26T04:41:55.053Z,7.15
2022-08-26T04:44:22.753Z,8.55
2022-08-26T04:46:50.983Z,7.57
2022-08-26T04:49:18.477Z,7.97
2022-08-26T04:51:45.544Z,8.85
2022-08-26T04:54:14.017Z,7.22
2022-08-26T04:56:45.170Z,8.48
2022-08-26T04:59:17.047Z,7.82
2022-08-26T05:01:52.885Z,7.32
2022-08-26T05:04:21.010Z,7.85
2022-08-26T05:06:49.056Z,7.45
2022-08-26T05:09:16.472Z,6.45
2022-08-26T05:11:43.296Z,6.07
2022-08-26T05:14:10.101Z,7.40
2022-08-26T05:16:37.746Z,6.03
2022-08-26T05:19:08.525Z,6.57
2022-08-26T05:21:36.544Z,7.53
2022-08-26T05:24:04.652Z,5.95
2022-08-26T05:26:32.363Z,6.25
2022-08-26T05:28:59.479Z,6.00
2022-08-26T05:31:31.675Z,6.32
2022-08-26T05:33:59.849Z,5.35
2022-08-26T05:36:33.082Z,5.75
2022-08-26T05:39:01.070Z,6.93
2022-08-26T05:41:36.473Z,7.22
2022-08-26T05:44:08.585Z,7.13
2022-08-26T05:46:36.821Z,6.70
2022-08-26T05:49:04.893Z,7.35
2022-08-26T05:51:33.002Z,7.38
2022-08-26T05:54:01.984Z,5.00
2022-08-26T05:56:30.633Z,5.60
2022-08-26T05:58:58.542Z,5.95
2022-08-26T06:01:28.601Z,5.60
2022-08-26T06:04:00.710Z,4.97
2022-08-26T06:06:34.011Z,5.63
2022-08-26T06:09:04.051Z,4.68
2022-08-26T06:11:32.509Z,5.95
2022-08-26T06:14:03.739Z,5.78
2022-08-26T06:16:38.552Z,5.18
2022-08-26T06:19:10.475Z,5.55
2022-08-26T06:21:41.105Z,5.43
2022-08-26T06:24:31.791Z,4.93
2022-08-26T06:27:05.107Z,6.00
2022-08-26T06:29:35.033Z,5.10
2022-08-26T06:32:04.331Z,5.35
2022-08-26T06:34:31.326Z,4.70
2022-08-26T06:37:03.374Z,6.40
2022-08-26T06:39:31.311Z,5.13
2022-08-26T06:41:59.395Z,4.28
2022-08-26T06:44:27.168Z,4.18
2022-08-26T06:46:54.246Z,5.03
2022-08-26T06:49:26.606Z,4.65
2022-08-26T06:52:00.829Z,5.13
2022-08-26T06:54:31.693Z,5.67
2022-08-26T06:56:59.651Z,4.85
2022-08-26T06:59:26.755Z,5.13
2022-08-26T07:01:54.652Z,4.57
2022-08-26T07:04:23.145Z,4.97
2022-08-26T07:06:52.656Z,4.00
2022-08-26T07:09:22.529Z,5.00
2022-08-26T07:11:51.590Z,3.65
2022-08-26T07:14:21.412Z,4.13
2022-08-26T07:16:50.054Z,3.88
2022-08-26T07:19:28.519Z,4.05
2022-08-26T07:22:04.311Z,4.13
2022-08-26T07:24:36.534Z,2.97
2022-08-26T07:27:06.910Z,3.90
2022-08-26T07:29:37.664Z,3.45
2022-08-26T07:32:04.738Z,2.97
2022-08-26T07:34:33.185Z,3.08
2022-08-26T07:37:00.608Z,3.30
2022-08-26T07:39:28.267Z,3.15
2022-08-26T07:41:59.960Z,3.08
2022-08-26T07:44:27.248Z,3.05
2022-08-26T07:46:54.113Z,2.97
2022-08-26T07:49:24.311Z,2.88
2022-08-26T07:51:51.688Z,2.72
2022-08-26T07:54:19.217Z,3.25
2022-08-26T07:56:48.330Z,3.60
2022-08-26T07:59:16.994Z,2.72
2022-08-26T08:01:45.433Z,3.80
2022-08-26T08:04:17.863Z,2.42
2022-08-26T08:06:45.656Z,2.70
2022-08-26T08:09:14.875Z,2.60
2022-08-26T08:11:44.648Z,2.65
2022-08-26T08:14:13.246Z,2.05
2022-08-26T08:16:45.775Z,3.08
2022-08-26T08:19:14.547Z,2.97
2022-08-26T08:21:43.060Z,2.90
2022-08-26T08:24:11.126Z,2.05
2022-08-26T08:26:39.850Z,2.55
2022-08-26T08:29:08.789Z,2.38
2022-08-26T08:31:56.964Z,1.70
2022-08-26T08:34:24.355Z,2.30
2022-08-26T08:36:53.446Z,1.92
2022-08-26T08:39:20.803Z,2.88
2022-08-26T08:42:26.860Z,1.83
2022-08-26T08:44:57.672Z,2.55
2022-08-26T08:47:54.099Z,1.77
2022-08-26T08:50:33.851Z,1.20
2022-08-26T08:53:30.179Z,1.77
2022-08-26T08:56:28.303Z,2.17
2022-08-26T08:59:04.601Z,2.03
2022-08-26T09:01:46.850Z,1.80
2022-08-26T09:04:37.985Z,1.58
2022-08-26T09:07:08.933Z,1.90
2022-08-26T09:09:41.722Z,1.48
2022-08-26T09:12:14.902Z,1.85
2022-08-26T09:14:45.595Z,1.73
2022-08-26T09:17:21.706Z,1.63
2022-08-26T09:19:53.081Z,2.33
2022-08-26T09:22:32.542Z,1.70
2022-08-26T09:25:02.017Z,1.90
2022-08-26T09:27:51.632Z,1.77
2022-08-26T09:30:33.202Z,1.50
2022-08-26T09:33:06.639Z,1.17
2022-08-26T09:35:43.935Z,2.28
2022-08-26T09:38:32.875Z,1.50
2022-08-26T09:41:21.250Z,2.25
2022-08-26T09:44:15.733Z,1.55
2022-08-26T09:46:56.780Z,1.80
2022-08-26T09:49:40.152Z,1.38
2022-08-26T09:52:24.661Z,1.25
2022-08-26T09:55:09.668Z,1.80
2022-08-26T09:57:46.158Z,1.63
2022-08-26T10:00:33.210Z,2.45
2022-08-26T10:03:03.724Z,1.55
2022-08-26T10:05:54.336Z,1.23
2022-08-26T10:08:30.208Z,1.30
2022-08-26T10:11:01.318Z,1.40
2022-08-26T10:13:31.290Z,1.35
2022-08-26T10:16:19.361Z,0.98
2022-08-26T10:19:09.451Z,1.85
2022-08-26T10:21:44.427Z,1.50
2022-08-26T10:24:20.530Z,1.23
2022-08-26T10:27:14.587Z,0.77
2022-08-26T10:29:46.686Z,1.23
2022-08-26T10:32:41.351Z,1.10
2022-08-26T10:35:13.572Z,0.90
2022-08-26T10:37:46.668Z,0.93
2022-08-26T10:40:20.995Z,0.70
2022-08-26T10:43:12.559Z,1.00
2022-08-26T10:45:54.782Z,1.10
2022-08-26T10:48:35.855Z,0.60
2022-08-26T10:51:04.220Z,0.60
2022-08-26T10:53:49.961Z,0.73
2022-08-26T10:56:42.566Z,0.25
2022-08-26T10:59:52.167Z,0.52
2022-08-26T11:02:41.768Z,0.70
2022-08-26T11:05:23.511Z,0.47
2022-08-26T11:07:54.856Z,0.70
2022-08-26T11:10:22.481Z,0.73
2022-08-26T11:12:58.927Z,0.90
2022-08-26T11:15:29.417Z,0.63
2022-08-26T11:18:11.703Z,0.77
2022-08-26T11:20:45.886Z,0.70
2022-08-26T11:23:12.845Z,0.60
2022-08-26T11:26:02.033Z,0.93
2022-08-26T11:28:40.215Z,0.55
2022-08-26T11:31:33.146Z,0.50
2022-08-26T11:34:10.808Z,0.70
2022-08-26T11:36:54.573Z,0.60
2022-08-26T11:39:47.311Z,0.83
2022-08-26T11:42:39.398Z,0.47
2022-08-26T11:45:34.307Z,0.68
2022-08-26T11:48:22.720Z,0.70
2022-08-26T11:51:03.134Z,0.73
2022-08-26T11:53:33.337Z,1.20
2022-08-26T11:56:04.060Z,0.60
2022-08-26T11:58:31.946Z,1.45
2022-08-26T12:01:03.641Z,0.73
2022-08-26T12:03:41.642Z,0.52
2022-08-26T12:06:21.690Z,0.80
2022-08-26T12:08:49.706Z,0.55
2022-08-26T12:11:31.885Z,0.50
2022-08-26T12:14:07.220Z,0.65
2022-08-26T12:16:40.132Z,0.60
2022-08-26T12:19:27.478Z,0.60
2022-08-26T12:22:26.570Z,0.65
2022-08-26T12:25:07.019Z,0.47
2022-08-26T12:27:39.743Z,0.80
2022-08-26T12:30:14.275Z,0.50
2022-08-26T12:33:22.445Z,0.60
2022-08-26T12:35:54.777Z,1.20
2022-08-26T12:38:26.102Z,0.57
2022-08-26T12:40:53.697Z,0.52
2022-08-26T12:43:37.441Z,0.70
2022-08-26T12:46:06.808Z,0.87
2022-08-26T12:48:38.486Z,0.40
2022-08-26T12:51:16.350Z,0.57
2022-08-26T12:53:44.079Z,0.52
2022-08-26T12:56:41.670Z,0.80
2022-08-26T12:59:19.189Z,0.40
2022-08-26T13:01:46.939Z,1.05
2022-08-26T13:04:34.634Z,0.50
2022-08-26T13:07:21.074Z,0.80
2022-08-26T13:09:48.564Z,0.60
2022-08-26T13:12:30.445Z,0.88
2022-08-26T13:14:58.791Z,0.95
2022-08-26T13:17:27.533Z,0.32
2022-08-26T13:19:54.655Z,0.38
2022-08-26T13:22:24.293Z,0.47
2022-08-26T13:24:56.586Z,1.00
2022-08-26T13:27:26.211Z,0.40
2022-08-26T13:29:54.696Z,0.77
2022-08-26T13:32:22.546Z,0.55
2022-08-26T13:34:55.054Z,0.40
2022-08-26T13:37:24.271Z,0.50
2022-08-26T13:40:03.504Z,1.17
2022-08-26T13:42:31.299Z,0.47
2022-08-26T13:44:58.912Z,1.08
2022-08-26T13:47:26.170Z,1.17
2022-08-26T13:49:55.182Z,0.60
2022-08-26T13:52:29.177Z,0.85
2022-08-26T13:55:00.067Z,0.52
2022-08-26T13:57:28.384Z,0.40
2022-08-26T13:59:57.083Z,0.40
2022-08-26T14:02:23.892Z,0.70
2022-08-26T14:04:50.749Z,0.50
2022-08-26T14:07:17.586Z,0.30
2022-08-26T14:09:44.468Z,0.50
2022-08-26T14:12:11.319Z,0.73
2022-08-26T14:14:38.121Z,0.40
2022-08-26T14:17:05.347Z,0.47
2022-08-26T14:19:32.310Z,0.60
2022-08-26T14:22:00.828Z,0.57
2022-08-26T14:24:27.948Z,0.50
2022-08-26T14:26:54.839Z,0.50
2022-08-26T14:29:21.691Z,0.50
2022-08-26T14:31:48.656Z,0.30
2022-08-26T14:34:15.708Z,0.65
2022-08-26T14:36:43.008Z,0.47
2022-08-26T14:39:11.766Z,0.75
2022-08-26T14:41:45.124Z,0.63
2022-08-26T14:44:21.399Z,1.05
2022-08-26T14:46:50.359Z,0.43
2022-08-26T14:49:18.858Z,0.43
2022-08-26T14:51:45.964Z,0.30
2022-08-26T14:54:14.165Z,0.50
2022-08-26T14:56:54.622Z,0.98
2022-08-26T14:59:33.468Z,0.50
2022-08-26T15:02:01.226Z,0.30
2022-08-26T15:04:28.563Z,0.35
2022-08-26T15:06:57.580Z,0.65
2022-08-26T15:09:25.368Z,0.57
2022-08-26T15:11:53.139Z,0.77
2022-08-26T15:14:21.943Z,1.23
2022-08-26T15:16:51.633Z,0.57
2022-08-26T15:19:19.296Z,0.70
2022-08-26T15:21:47.351Z,0.60
2022-08-26T15:24:16.590Z,0.22
2022-08-26T15:26:44.582Z,0.47
2022-08-26T15:29:11.569Z,0.50
2022-08-26T15:31:38.593Z,0.80
2022-08-26T15:34:09.547Z,0.60
2022-08-26T15:36:39.078Z,0.43
2022-08-26T15:39:07.360Z,0.65
2022-08-26T15:41:34.808Z,0.90
2022-08-26T15:44:02.366Z,0.50
2022-08-26T15:46:32.009Z,1.05
2022-08-26T15:48:59.000Z,1.27
2022-08-26T15:51:29.707Z,0.75
2022-08-26T15:53:57.081Z,0.30
2022-08-26T15:56:29.557Z,0.50
2022-08-26T15:58:56.886Z,0.30
2022-08-26T16:01:27.805Z,0.60
2022-08-26T16:03:56.085Z,0.73
2022-08-26T16:06:25.878Z,0.68
2022-08-26T16:08:52.990Z,0.28
2022-08-26T16:11:20.331Z,0.40
2022-08-26T16:13:47.816Z,0.50
2022-08-26T16:16:15.509Z,0.38
2022-08-26T16:18:43.269Z,0.75
2022-08-26T16:21:16.497Z,1.00
2022-08-26T16:23:45.142Z,0.40
2022-08-26T16:26:39.392Z,0.80
2022-08-26T16:29:10.121Z,0.50
2022-08-26T16:31:38.503Z,0.35
2022-08-26T16:34:07.043Z,0.80
2022-08-26T16:36:34.853Z,0.85
2022-08-26T16:39:02.068Z,0.32
2022-08-26T16:41:31.012Z,0.50
2022-08-26T16:43:58.364Z,0.35
2022-08-26T16:46:31.602Z,0.98
2022-08-26T16:48:59.021Z,0.40
2022-08-26T16:51:28.130Z,1.52
2022-08-26T16:53:56.501Z,0.50
2022-08-26T16:56:33.423Z,0.30
2022-08-26T16:59:01.433Z,0.70
2022-08-26T17:01:28.555Z,0.40
2022-08-26T17:03:55.498Z,0.80
2022-08-26T17:06:22.348Z,0.50
2022-08-26T17:08:49.256Z,0.38
2022-08-26T17:11:16.335Z,0.30
2022-08-26T17:13:43.247Z,0.28
2022-08-26T17:16:11.884Z,0.38
2022-08-26T17:18:38.911Z,0.30
2022-08-26T17:21:09.884Z,0.40
2022-08-26T17:23:39.688Z,0.40
2022-08-26T17:26:06.945Z,0.75
2022-08-26T17:28:33.948Z,0.75
2022-08-26T17:31:01.772Z,0.43
2022-08-26T17:33:29.217Z,0.50
2022-08-26T17:35:56.302Z,0.40
2022-08-26T17:38:25.351Z,0.30
2022-08-26T17:40:52.887Z,0.80
2022-08-26T17:43:19.869Z,0.70
2022-08-26T17:45:47.863Z,0.45
2022-08-26T17:48:14.777Z,0.22
2022-08-26T17:50:43.041Z,0.28
2022-08-26T17:53:18.579Z,0.20
2022-08-26T17:55:46.675Z,0.20
2022-08-26T17:58:14.679Z,0.20
2022-08-26T18:00:47.347Z,0.25
2022-08-26T18:03:14.492Z,0.30
2022-08-26T18:05:42.623Z,0.20
2022-08-26T18:08:10.045Z,0.20
2022-08-26T18:10:37.006Z,0.55
2022-08-26T18:13:04.704Z,0.75
2022-08-26T18:15:31.590Z,0.20
2022-08-26T18:17:58.469Z,0.30
2022-08-26T18:20:25.525Z,0.30
2022-08-26T18:22:53.837Z,0.20
2022-08-26T18:25:20.810Z,0.20
2022-08-26T18:27:47.774Z,0.10
2022-08-26T18:30:20.585Z,0.20
2022-08-26T18:32:49.037Z,0.10
2022-08-26T18:35:16.394Z,0.43
2022-08-26T18:37:44.411Z,0.32
2022-08-26T18:40:13.672Z,0.35
2022-08-26T18:42:41.362Z,0.32
2022-08-26T18:45:09.164Z,0.30
2022-08-26T18:47:36.379Z,0.68
2022-08-26T18:50:04.728Z,0.30
2022-08-26T18:52:32.362Z,0.20
2022-08-26T18:54:59.516Z,0.70
2022-08-26T18:57:26.492Z,0.20
2022-08-26T18:59:53.356Z,0.30
2022-08-26T19:02:20.340Z,0.70
2022-08-26T19:04:47.274Z,0.20
2022-08-26T19:07:14.544Z,0.63
2022-08-26T19:09:41.356Z,0.88
2022-08-26T19:12:08.963Z,0.30
2022-08-26T19:14:36.663Z,0.47
2022-08-26T19:17:04.447Z,0.50
2022-08-26T19:19:31.774Z,0.35
2022-08-26T19:21:58.688Z,0.20
2022-08-26T19:24:27.462Z,0.10
2022-08-26T19:26:58.801Z,0.20
2022-08-26T19:29:29.817Z,0.60
2022-08-26T19:31:56.758Z,0.20
2022-08-26T19:34:24.893Z,0.13
2022-08-26T19:36:53.507Z,0.25
2022-08-26T19:39:21.289Z,0.20
2022-08-26T19:41:48.216Z,0.57
2022-08-26T19:44:37.861Z,0.60
2022-08-26T19:47:06.877Z,0.20
2022-08-26T19:49:34.817Z,0.50
2022-08-26T19:52:04.337Z,0.47
2022-08-26T19:54:31.245Z,0.10
2022-08-26T19:56:58.104Z,0.15
2022-08-26T19:59:24.940Z,0.30
2022-08-26T20:02:00.699Z,0.25
2022-08-26T20:04:32.266Z,0.45
2022-08-26T20:07:00.917Z,0.25
2022-08-26T20:09:32.856Z,0.40
2022-08-26T20:12:00.251Z,0.38
2022-08-26T20:14:27.949Z,0.20
2022-08-26T20:16:54.901Z,0.20
2022-08-26T20:19:40.633Z,0.80
2022-08-26T20:22:08.194Z,0.63
2022-08-26T20:24:35.571Z,0.30
2022-08-26T20:27:07.522Z,0.13
2022-08-26T20:29:35.954Z,0.73
2022-08-26T20:32:03.861Z,0.40
2022-08-26T20:34:30.767Z,0.25
2022-08-26T20:36:57.762Z,0.10
2022-08-26T20:39:25.330Z,0.15
2022-08-26T20:41:52.155Z,0.38
2022-08-26T20:44:19.014Z,0.40
2022-08-26T20:46:45.944Z,0.40
2022-08-26T20:49:13.394Z,0.55
2022-08-26T20:51:43.124Z,0.73
2022-08-26T20:54:12.256Z,0.10
2022-08-26T20:56:39.709Z,0.20
2022-08-26T20:59:08.122Z,0.35
2022-08-26T21:01:36.887Z,0.40
2022-08-26T21:04:11.786Z,0.45
2022-08-26T21:06:38.868Z,0.10
2022-08-26T21:09:09.274Z,0.20
2022-08-26T21:11:37.424Z,0.13
2022-08-26T21:14:06.919Z,0.80
2022-08-26T21:16:43.984Z,0.50
2022-08-26T21:19:13.993Z,0.70
2022-08-26T21:21:41.640Z,0.80
2022-08-26T21:24:08.742Z,0.40
2022-08-26T21:26:35.758Z,0.40
2022-08-26T21:29:02.688Z,0.35
2022-08-26T21:31:31.844Z,0.30
2022-08-26T21:33:59.643Z,0.30
2022-08-26T21:36:26.766Z,0.35
2022-08-26T21:38:59.211Z,0.30
2022-08-26T21:41:27.145Z,0.20
2022-08-26T21:43:58.897Z,0.95
2022-08-26T21:46:28.397Z,0.20
2022-08-26T21:49:01.365Z,0.25
2022-08-26T21:51:31.103Z,0.40
2022-08-26T21:53:59.503Z,0.05
2022-08-26T21:56:28.893Z,0.32
2022-08-26T21:58:56.529Z,0.60
2022-08-26T22:01:25.444Z,0.25
2022-08-26T22:03:52.675Z,0.10
2022-08-26T22:06:21.970Z,0.40
2022-08-26T22:08:49.504Z,0.22
2022-08-26T22:11:17.862Z,0.52
2022-08-26T22:13:45.871Z,0.30
2022-08-26T22:16:13.326Z,0.20
2022-08-26T22:18:45.902Z,0.43
2022-08-26T22:21:20.056Z,0.22
2022-08-26T22:23:47.813Z,0.40
2022-08-26T22:26:23.371Z,0.20
2022-08-26T22:28:58.840Z,0.30
2022-08-26T22:31:37.755Z,0.40
2022-08-26T22:34:12.323Z,0.40
2022-08-26T22:36:43.910Z,0.30
2022-08-26T22:39:13.138Z,0.60
2022-08-26T22:41:40.502Z,0.68
2022-08-26T22:44:07.527Z,0.47
2022-08-26T22:46:36.723Z,0.35
2022-08-26T22:49:04.940Z,0.28
2022-08-26T22:51:32.119Z,0.30
2022-08-26T22:53:59.189Z,0.30
2022-08-26T22:56:26.081Z,0.40
2022-08-26T22:58:52.956Z,0.22
2022-08-26T23:01:19.857Z,0.30
2022-08-26T23:03:46.890Z,0.20
2022-08-26T23:06:13.877Z,0.28
2022-08-26T23:08:42.035Z,0.28
2022-08-26T23:11:11.013Z,0.38
2022-08-26T23:13:38.942Z,0.20
2022-08-26T23:16:09.437Z,0.52
2022-08-26T23:18:37.222Z,0.30
2022-08-26T23:21:04.645Z,0.30
2022-08-26T23:23:31.705Z,0.20
2022-08-26T23:25:59.006Z,0.50
2022-08-26T23:28:26.518Z,0.32
2022-08-26T23:30:53.857Z,0.47
2022-08-26T23:33:21.124Z,0.35
2022-08-26T23:35:48.114Z,0.50
2022-08-26T23:38:16.486Z,0.40
2022-08-26T23:40:43.318Z,0.30
2022-08-26T23:43:11.555Z,0.50
2022-08-26T23:45:39.261Z,0.30
2022-08-26T23:48:06.688Z,0.75
2022-08-26T23:50:52.467Z,0.82
2022-08-26T23:53:22.273Z,0.32
2022-08-26T23:55:51.518Z,0.50
2022-08-26T23:58:20.790Z,0.52
